sensor_id;sensor_type;location;lat;lon;timestamp;P1;durP1;ratioP1;P2;durP2;ratioP2
20857;SDS011;10589;53.636;10.012;2024-03-08T04:46:50;44.30;;;19.77;;
20857;SDS011;10589;53.636;10.012;2024-03-08T04:49:15;46.90;;;20.80;;
20857;SDS011;10589;53.636;10.012;2024-03-08T04:51:41;44.70;;;21.00;;
20857;SDS011;10589;53.636;10.012;2024-03-08T04:54:07;42.93;;;21.13;;
20857;SDS011;10589;53.636;10.012;2024-03-08T04:56:32;42.13;;;20.50;;
20857;SDS011;10589;53.636;10.012;2024-03-08T04:58:58;45.50;;;20.77;;
20857;SDS011;10589;53.636;10.012;2024-03-08T05:01:24;46.73;;;21.37;;
20857;SDS011;10589;53.636;10.012;2024-03-08T05:03:49;48.00;;;21.70;;
20857;SDS011;10589;53.636;10.012;2024-03-08T05:06:16;49.30;;;22.20;;
20857;SDS011;10589;53.636;10.012;2024-03-08T05:08:41;45.27;;;21.20;;
20857;SDS011;10589;53.636;10.012;2024-03-08T05:11:07;50.10;;;22.03;;
20857;SDS011;10589;53.636;10.012;2024-03-08T05:13:33;50.63;;;21.33;;
20857;SDS011;10589;53.636;10.012;2024-03-08T05:15:59;43.17;;;21.63;;
20857;SDS011;10589;53.636;10.012;2024-03-08T05:18:25;46.57;;;21.90;;
20857;SDS011;10589;53.636;10.012;2024-03-08T05:20:53;46.20;;;22.37;;
20857;SDS011;10589;53.636;10.012;2024-03-08T05:23:19;48.13;;;22.63;;
20857;SDS011;10589;53.636;10.012;2024-03-08T05:25:45;44.53;;;22.20;;
20857;SDS011;10589;53.636;10.012;2024-03-08T05:28:13;50.47;;;23.10;;
20857;SDS011;10589;53.636;10.012;2024-03-08T05:30:39;51.63;;;22.80;;
20857;SDS011;10589;53.636;10.012;2024-03-08T05:33:04;51.60;;;23.00;;
20857;SDS011;10589;53.636;10.012;2024-03-08T05:35:30;51.53;;;23.73;;
20857;SDS011;10589;53.636;10.012;2024-03-08T05:37:57;45.73;;;22.87;;
20857;SDS011;10589;53.636;10.012;2024-03-08T05:40:22;48.93;;;22.57;;
20857;SDS011;10589;53.636;10.012;2024-03-08T05:42:49;49.43;;;22.00;;
20857;SDS011;10589;53.636;10.012;2024-03-08T05:45:14;47.07;;;21.87;;
20857;SDS011;10589;53.636;10.012;2024-03-08T05:47:40;48.73;;;22.90;;
20857;SDS011;10589;53.636;10.012;2024-03-08T05:50:06;52.87;;;23.90;;
20857;SDS011;10589;53.636;10.012;2024-03-08T05:52:36;54.87;;;23.27;;
20857;SDS011;10589;53.636;10.012;2024-03-08T05:55:03;52.73;;;23.73;;
20857;SDS011;10589;53.636;10.012;2024-03-08T05:57:32;55.50;;;23.33;;
20857;SDS011;10589;53.636;10.012;2024-03-08T05:59:58;51.43;;;23.43;;
20857;SDS011;10589;53.636;10.012;2024-03-08T06:02:23;47.37;;;23.13;;
20857;SDS011;10589;53.636;10.012;2024-03-08T06:04:49;49.40;;;22.20;;
20857;SDS011;10589;53.636;10.012;2024-03-08T06:07:14;46.33;;;22.30;;
20857;SDS011;10589;53.636;10.012;2024-03-08T06:09:42;47.10;;;22.67;;
20857;SDS011;10589;53.636;10.012;2024-03-08T06:12:11;51.60;;;23.60;;
20857;SDS011;10589;53.636;10.012;2024-03-08T06:14:36;53.90;;;24.30;;
20857;SDS011;10589;53.636;10.012;2024-03-08T06:17:02;50.27;;;23.80;;
20857;SDS011;10589;53.636;10.012;2024-03-08T06:19:31;48.37;;;22.67;;
20857;SDS011;10589;53.636;10.012;2024-03-08T06:21:56;65.00;;;25.40;;
20857;SDS011;10589;53.636;10.012;2024-03-08T06:24:22;60.73;;;25.20;;
20857;SDS011;10589;53.636;10.012;2024-03-08T06:26:47;51.03;;;22.97;;
20857;SDS011;10589;53.636;10.012;2024-03-08T06:29:13;52.77;;;24.30;;
20857;SDS011;10589;53.636;10.012;2024-03-08T06:31:40;52.97;;;24.60;;
20857;SDS011;10589;53.636;10.012;2024-03-08T06:34:05;60.87;;;24.87;;
20857;SDS011;10589;53.636;10.012;2024-03-08T06:36:33;50.30;;;23.33;;
20857;SDS011;10589;53.636;10.012;2024-03-08T06:38:58;54.27;;;25.10;;
20857;SDS011;10589;53.636;10.012;2024-03-08T06:41:24;53.97;;;24.77;;
20857;SDS011;10589;53.636;10.012;2024-03-08T06:43:50;53.80;;;25.17;;
20857;SDS011;10589;53.636;10.012;2024-03-08T06:46:17;51.73;;;24.60;;
20857;SDS011;10589;53.636;10.012;2024-03-08T06:48:43;58.57;;;25.57;;
20857;SDS011;10589;53.636;10.012;2024-03-08T06:51:10;53.80;;;25.60;;
20857;SDS011;10589;53.636;10.012;2024-03-08T06:53:36;60.43;;;25.63;;
20857;SDS011;10589;53.636;10.012;2024-03-08T06:56:03;52.30;;;25.43;;
20857;SDS011;10589;53.636;10.012;2024-03-08T06:58:29;56.50;;;26.00;;
20857;SDS011;10589;53.636;10.012;2024-03-08T07:00:54;54.90;;;25.47;;
20857;SDS011;10589;53.636;10.012;2024-03-08T07:03:23;52.43;;;24.97;;
20857;SDS011;10589;53.636;10.012;2024-03-08T07:05:49;58.83;;;26.47;;
20857;SDS011;10589;53.636;10.012;2024-03-08T07:08:15;56.73;;;27.37;;
20857;SDS011;10589;53.636;10.012;2024-03-08T07:10:41;51.33;;;26.20;;
20857;SDS011;10589;53.636;10.012;2024-03-08T07:13:07;52.80;;;25.30;;
20857;SDS011;10589;53.636;10.012;2024-03-08T07:15:33;59.07;;;26.20;;
20857;SDS011;10589;53.636;10.012;2024-03-08T07:18:00;59.13;;;25.60;;
20857;SDS011;10589;53.636;10.012;2024-03-08T07:20:26;54.43;;;25.87;;
20857;SDS011;10589;53.636;10.012;2024-03-08T07:22:51;58.97;;;26.00;;
20857;SDS011;10589;53.636;10.012;2024-03-08T07:25:17;53.77;;;24.97;;
20857;SDS011;10589;53.636;10.012;2024-03-08T07:27:49;47.27;;;24.57;;
20857;SDS011;10589;53.636;10.012;2024-03-08T07:30:16;54.40;;;25.20;;
20857;SDS011;10589;53.636;10.012;2024-03-08T07:33:00;44.03;;;23.70;;
20857;SDS011;10589;53.636;10.012;2024-03-08T07:35:27;49.40;;;25.80;;
20857;SDS011;10589;53.636;10.012;2024-03-08T07:37:56;51.70;;;25.30;;
20857;SDS011;10589;53.636;10.012;2024-03-08T07:40:22;46.27;;;24.30;;
20857;SDS011;10589;53.636;10.012;2024-03-08T07:42:48;46.37;;;25.00;;
20857;SDS011;10589;53.636;10.012;2024-03-08T07:45:15;43.27;;;24.17;;
20857;SDS011;10589;53.636;10.012;2024-03-08T07:47:41;48.37;;;24.23;;
20857;SDS011;10589;53.636;10.012;2024-03-08T07:50:07;47.73;;;24.97;;
20857;SDS011;10589;53.636;10.012;2024-03-08T07:52:33;47.70;;;24.40;;
20857;SDS011;10589;53.636;10.012;2024-03-08T07:54:59;45.20;;;23.77;;
20857;SDS011;10589;53.636;10.012;2024-03-08T07:57:25;46.27;;;22.67;;
20857;SDS011;10589;53.636;10.012;2024-03-08T07:59:51;43.07;;;23.23;;
20857;SDS011;10589;53.636;10.012;2024-03-08T08:02:17;46.20;;;23.53;;
20857;SDS011;10589;53.636;10.012;2024-03-08T08:04:43;43.23;;;23.87;;
20857;SDS011;10589;53.636;10.012;2024-03-08T08:07:10;38.00;;;21.67;;
20857;SDS011;10589;53.636;10.012;2024-03-08T08:09:36;42.03;;;23.30;;
20857;SDS011;10589;53.636;10.012;2024-03-08T08:12:02;41.33;;;22.70;;
20857;SDS011;10589;53.636;10.012;2024-03-08T08:14:28;38.50;;;22.13;;
20857;SDS011;10589;53.636;10.012;2024-03-08T08:16:54;40.07;;;22.67;;
20857;SDS011;10589;53.636;10.012;2024-03-08T08:19:22;38.47;;;22.47;;
20857;SDS011;10589;53.636;10.012;2024-03-08T08:21:48;37.00;;;21.17;;
20857;SDS011;10589;53.636;10.012;2024-03-08T08:24:14;38.00;;;21.90;;
20857;SDS011;10589;53.636;10.012;2024-03-08T08:26:40;40.00;;;22.10;;
20857;SDS011;10589;53.636;10.012;2024-03-08T08:29:05;35.47;;;21.47;;
20857;SDS011;10589;53.636;10.012;2024-03-08T08:31:31;42.53;;;22.30;;
20857;SDS011;10589;53.636;10.012;2024-03-08T08:33:57;32.63;;;20.03;;
20857;SDS011;10589;53.636;10.012;2024-03-08T08:36:24;36.43;;;20.90;;
20857;SDS011;10589;53.636;10.012;2024-03-08T08:38:49;34.33;;;21.27;;
20857;SDS011;10589;53.636;10.012;2024-03-08T08:41:15;34.27;;;20.63;;
20857;SDS011;10589;53.636;10.012;2024-03-08T08:43:42;33.73;;;19.90;;
20857;SDS011;10589;53.636;10.012;2024-03-08T08:46:09;32.53;;;20.80;;
20857;SDS011;10589;53.636;10.012;2024-03-08T08:48:38;33.00;;;20.70;;
20857;SDS011;10589;53.636;10.012;2024-03-08T08:51:06;31.23;;;19.73;;
20857;SDS011;10589;53.636;10.012;2024-03-08T08:53:38;33.03;;;20.73;;
20857;SDS011;10589;53.636;10.012;2024-03-08T08:56:07;32.53;;;20.87;;
20857;SDS011;10589;53.636;10.012;2024-03-08T08:58:33;32.30;;;20.27;;
20857;SDS011;10589;53.636;10.012;2024-03-08T09:00:59;31.13;;;18.00;;
20857;SDS011;10589;53.636;10.012;2024-03-08T09:03:25;31.67;;;18.83;;
20857;SDS011;10589;53.636;10.012;2024-03-08T09:05:52;32.97;;;20.07;;
20857;SDS011;10589;53.636;10.012;2024-03-08T09:08:18;30.90;;;19.27;;
20857;SDS011;10589;53.636;10.012;2024-03-08T09:10:44;29.87;;;18.70;;
20857;SDS011;10589;53.636;10.012;2024-03-08T09:13:09;29.73;;;19.17;;
20857;SDS011;10589;53.636;10.012;2024-03-08T09:15:36;31.87;;;18.30;;
20857;SDS011;10589;53.636;10.012;2024-03-08T09:18:05;30.77;;;18.13;;
20857;SDS011;10589;53.636;10.012;2024-03-08T09:20:31;28.73;;;18.73;;
20857;SDS011;10589;53.636;10.012;2024-03-08T09:22:57;32.30;;;19.33;;
20857;SDS011;10589;53.636;10.012;2024-03-08T09:25:23;29.83;;;18.23;;
20857;SDS011;10589;53.636;10.012;2024-03-08T09:27:48;29.83;;;18.03;;
20857;SDS011;10589;53.636;10.012;2024-03-08T09:30:15;30.00;;;18.43;;
20857;SDS011;10589;53.636;10.012;2024-03-08T09:32:41;30.93;;;18.47;;
20857;SDS011;10589;53.636;10.012;2024-03-08T09:35:08;29.40;;;17.43;;
20857;SDS011;10589;53.636;10.012;2024-03-08T09:37:34;27.93;;;18.00;;
20857;SDS011;10589;53.636;10.012;2024-03-08T09:40:00;26.87;;;17.73;;
20857;SDS011;10589;53.636;10.012;2024-03-08T09:42:29;27.30;;;18.43;;
20857;SDS011;10589;53.636;10.012;2024-03-08T09:44:56;29.90;;;18.33;;
20857;SDS011;10589;53.636;10.012;2024-03-08T09:47:22;28.37;;;17.57;;
20857;SDS011;10589;53.636;10.012;2024-03-08T09:49:52;27.03;;;16.37;;
20857;SDS011;10589;53.636;10.012;2024-03-08T09:52:18;25.40;;;17.53;;
20857;SDS011;10589;53.636;10.012;2024-03-08T09:54:43;26.70;;;17.57;;
20857;SDS011;10589;53.636;10.012;2024-03-08T09:57:09;27.10;;;17.43;;
20857;SDS011;10589;53.636;10.012;2024-03-08T09:59:35;27.73;;;17.27;;
20857;SDS011;10589;53.636;10.012;2024-03-08T10:02:01;26.13;;;16.97;;
20857;SDS011;10589;53.636;10.012;2024-03-08T10:04:28;30.47;;;17.20;;
20857;SDS011;10589;53.636;10.012;2024-03-08T10:06:57;25.57;;;16.47;;
20857;SDS011;10589;53.636;10.012;2024-03-08T10:09:24;27.00;;;16.70;;
20857;SDS011;10589;53.636;10.012;2024-03-08T10:12:01;24.33;;;16.20;;
20857;SDS011;10589;53.636;10.012;2024-03-08T10:14:27;24.90;;;16.03;;
20857;SDS011;10589;53.636;10.012;2024-03-08T10:16:53;26.77;;;17.50;;
20857;SDS011;10589;53.636;10.012;2024-03-08T10:19:19;25.80;;;16.80;;
20857;SDS011;10589;53.636;10.012;2024-03-08T10:21:48;23.00;;;16.20;;
20857;SDS011;10589;53.636;10.012;2024-03-08T10:24:15;25.93;;;16.80;;
20857;SDS011;10589;53.636;10.012;2024-03-08T10:26:40;25.03;;;17.00;;
20857;SDS011;10589;53.636;10.012;2024-03-08T10:29:10;25.37;;;16.80;;
20857;SDS011;10589;53.636;10.012;2024-03-08T10:31:42;27.43;;;16.67;;
20857;SDS011;10589;53.636;10.012;2024-03-08T10:34:09;24.90;;;16.27;;
20857;SDS011;10589;53.636;10.012;2024-03-08T10:36:35;25.17;;;16.53;;
20857;SDS011;10589;53.636;10.012;2024-03-08T10:39:03;23.83;;;16.50;;
20857;SDS011;10589;53.636;10.012;2024-03-08T10:41:32;22.60;;;16.17;;
20857;SDS011;10589;53.636;10.012;2024-03-08T10:44:10;25.90;;;16.07;;
20857;SDS011;10589;53.636;10.012;2024-03-08T10:47:03;21.10;;;15.50;;
20857;SDS011;10589;53.636;10.012;2024-03-08T10:49:45;23.60;;;16.23;;
20857;SDS011;10589;53.636;10.012;2024-03-08T10:52:33;23.77;;;15.70;;
20857;SDS011;10589;53.636;10.012;2024-03-08T10:54:59;29.67;;;17.80;;
20857;SDS011;10589;53.636;10.012;2024-03-08T10:57:27;27.30;;;16.90;;
20857;SDS011;10589;53.636;10.012;2024-03-08T10:59:53;26.00;;;16.33;;
20857;SDS011;10589;53.636;10.012;2024-03-08T11:02:20;24.20;;;15.83;;
20857;SDS011;10589;53.636;10.012;2024-03-08T11:04:49;24.20;;;15.37;;
20857;SDS011;10589;53.636;10.012;2024-03-08T11:07:16;23.00;;;15.67;;
20857;SDS011;10589;53.636;10.012;2024-03-08T11:09:45;22.90;;;15.73;;
20857;SDS011;10589;53.636;10.012;2024-03-08T11:12:28;21.50;;;15.13;;
20857;SDS011;10589;53.636;10.012;2024-03-08T11:14:55;25.83;;;15.50;;
20857;SDS011;10589;53.636;10.012;2024-03-08T11:19:54;19.83;;;14.83;;
20857;SDS011;10589;53.636;10.012;2024-03-08T11:22:22;20.90;;;14.07;;
20857;SDS011;10589;53.636;10.012;2024-03-08T11:24:49;24.33;;;15.07;;
20857;SDS011;10589;53.636;10.012;2024-03-08T11:27:15;22.70;;;15.00;;
20857;SDS011;10589;53.636;10.012;2024-03-08T11:29:41;22.63;;;14.33;;
20857;SDS011;10589;53.636;10.012;2024-03-08T11:32:07;27.33;;;15.03;;
20857;SDS011;10589;53.636;10.012;2024-03-08T11:34:41;21.33;;;14.33;;
20857;SDS011;10589;53.636;10.012;2024-03-08T11:37:11;20.70;;;14.03;;
20857;SDS011;10589;53.636;10.012;2024-03-08T11:42:23;21.77;;;14.23;;
20857;SDS011;10589;53.636;10.012;2024-03-08T11:44:51;21.60;;;14.70;;
20857;SDS011;10589;53.636;10.012;2024-03-08T11:47:18;19.63;;;13.70;;
20857;SDS011;10589;53.636;10.012;2024-03-08T11:49:45;22.23;;;14.60;;
20857;SDS011;10589;53.636;10.012;2024-03-08T11:52:16;22.30;;;14.73;;
20857;SDS011;10589;53.636;10.012;2024-03-08T11:54:43;22.13;;;14.13;;
20857;SDS011;10589;53.636;10.012;2024-03-08T11:57:22;23.17;;;14.30;;
20857;SDS011;10589;53.636;10.012;2024-03-08T11:59:52;20.90;;;14.17;;
20857;SDS011;10589;53.636;10.012;2024-03-08T12:02:19;20.47;;;13.70;;
20857;SDS011;10589;53.636;10.012;2024-03-08T12:04:44;23.00;;;14.77;;
20857;SDS011;10589;53.636;10.012;2024-03-08T12:07:13;19.20;;;13.90;;
20857;SDS011;10589;53.636;10.012;2024-03-08T12:09:42;19.67;;;13.93;;
20857;SDS011;10589;53.636;10.012;2024-03-08T12:12:11;25.17;;;14.43;;
20857;SDS011;10589;53.636;10.012;2024-03-08T12:14:37;22.00;;;13.43;;
20857;SDS011;10589;53.636;10.012;2024-03-08T12:17:04;20.10;;;15.00;;
20857;SDS011;10589;53.636;10.012;2024-03-08T12:19:30;21.27;;;14.23;;
20857;SDS011;10589;53.636;10.012;2024-03-08T12:21:57;20.07;;;14.33;;
20857;SDS011;10589;53.636;10.012;2024-03-08T12:24:33;21.87;;;14.67;;
20857;SDS011;10589;53.636;10.012;2024-03-08T12:26:59;20.83;;;13.93;;
20857;SDS011;10589;53.636;10.012;2024-03-08T12:29:25;19.87;;;14.60;;
20857;SDS011;10589;53.636;10.012;2024-03-08T12:31:57;19.90;;;14.10;;
20857;SDS011;10589;53.636;10.012;2024-03-08T12:34:25;22.23;;;14.67;;
20857;SDS011;10589;53.636;10.012;2024-03-08T12:36:56;21.97;;;14.33;;
20857;SDS011;10589;53.636;10.012;2024-03-08T12:39:23;21.63;;;14.27;;
20857;SDS011;10589;53.636;10.012;2024-03-08T12:41:52;22.20;;;14.37;;
20857;SDS011;10589;53.636;10.012;2024-03-08T12:44:24;20.53;;;14.00;;
20857;SDS011;10589;53.636;10.012;2024-03-08T12:46:51;22.27;;;12.93;;
20857;SDS011;10589;53.636;10.012;2024-03-08T12:49:18;19.33;;;12.63;;
20857;SDS011;10589;53.636;10.012;2024-03-08T12:51:47;21.40;;;13.27;;
20857;SDS011;10589;53.636;10.012;2024-03-08T12:54:13;18.77;;;12.83;;
20857;SDS011;10589;53.636;10.012;2024-03-08T12:56:39;19.00;;;12.80;;
20857;SDS011;10589;53.636;10.012;2024-03-08T12:59:05;18.50;;;13.10;;
20857;SDS011;10589;53.636;10.012;2024-03-08T13:01:35;17.03;;;11.77;;
20857;SDS011;10589;53.636;10.012;2024-03-08T13:04:04;20.70;;;13.47;;
20857;SDS011;10589;53.636;10.012;2024-03-08T13:06:31;17.97;;;11.73;;
20857;SDS011;10589;53.636;10.012;2024-03-08T13:08:57;17.50;;;11.87;;
20857;SDS011;10589;53.636;10.012;2024-03-08T13:11:24;17.87;;;12.10;;
20857;SDS011;10589;53.636;10.012;2024-03-08T13:13:50;15.57;;;11.87;;
20857;SDS011;10589;53.636;10.012;2024-03-08T13:16:17;17.20;;;11.87;;
20857;SDS011;10589;53.636;10.012;2024-03-08T13:18:44;15.30;;;11.67;;
20857;SDS011;10589;53.636;10.012;2024-03-08T13:21:11;17.30;;;12.57;;
20857;SDS011;10589;53.636;10.012;2024-03-08T13:23:39;17.93;;;12.90;;
20857;SDS011;10589;53.636;10.012;2024-03-08T13:26:09;16.70;;;11.67;;
20857;SDS011;10589;53.636;10.012;2024-03-08T13:28:42;16.00;;;11.50;;
20857;SDS011;10589;53.636;10.012;2024-03-08T13:31:13;17.40;;;12.90;;
20857;SDS011;10589;53.636;10.012;2024-03-08T13:33:40;20.20;;;13.20;;
20857;SDS011;10589;53.636;10.012;2024-03-08T13:36:07;15.07;;;11.80;;
20857;SDS011;10589;53.636;10.012;2024-03-08T13:38:42;17.13;;;12.30;;
20857;SDS011;10589;53.636;10.012;2024-03-08T13:41:09;16.53;;;12.50;;
20857;SDS011;10589;53.636;10.012;2024-03-08T13:43:37;17.63;;;12.00;;
20857;SDS011;10589;53.636;10.012;2024-03-08T13:46:03;17.57;;;12.57;;
20857;SDS011;10589;53.636;10.012;2024-03-08T13:48:30;15.98;;;12.23;;
20857;SDS011;10589;53.636;10.012;2024-03-08T13:50:57;14.90;;;11.55;;
20857;SDS011;10589;53.636;10.012;2024-03-08T13:53:23;16.63;;;11.25;;
20857;SDS011;10589;53.636;10.012;2024-03-08T13:55:51;13.10;;;10.75;;
20857;SDS011;10589;53.636;10.012;2024-03-08T13:58:17;14.73;;;10.90;;
20857;SDS011;10589;53.636;10.012;2024-03-08T14:00:42;17.03;;;11.63;;
20857;SDS011;10589;53.636;10.012;2024-03-08T14:03:11;15.60;;;11.67;;
20857;SDS011;10589;53.636;10.012;2024-03-08T14:05:41;16.00;;;11.63;;
20857;SDS011;10589;53.636;10.012;2024-03-08T14:08:07;15.57;;;11.97;;
20857;SDS011;10589;53.636;10.012;2024-03-08T14:10:34;17.20;;;11.67;;
20857;SDS011;10589;53.636;10.012;2024-03-08T14:13:00;15.80;;;10.77;;
20857;SDS011;10589;53.636;10.012;2024-03-08T14:15:27;17.67;;;11.83;;
20857;SDS011;10589;53.636;10.012;2024-03-08T14:17:53;15.03;;;11.53;;
20857;SDS011;10589;53.636;10.012;2024-03-08T14:20:20;14.53;;;11.90;;
20857;SDS011;10589;53.636;10.012;2024-03-08T14:22:50;18.43;;;13.07;;
20857;SDS011;10589;53.636;10.012;2024-03-08T14:25:19;18.90;;;13.15;;
20857;SDS011;10589;53.636;10.012;2024-03-08T14:27:48;15.43;;;12.85;;
20857;SDS011;10589;53.636;10.012;2024-03-08T14:30:23;16.40;;;12.68;;
20857;SDS011;10589;53.636;10.012;2024-03-08T14:33:03;16.50;;;11.88;;
20857;SDS011;10589;53.636;10.012;2024-03-08T14:35:34;19.13;;;13.23;;
20857;SDS011;10589;53.636;10.012;2024-03-08T14:38:00;17.80;;;12.53;;
20857;SDS011;10589;53.636;10.012;2024-03-08T14:40:26;19.03;;;11.97;;
20857;SDS011;10589;53.636;10.012;2024-03-08T14:42:52;17.87;;;13.07;;
20857;SDS011;10589;53.636;10.012;2024-03-08T14:45:18;15.77;;;12.83;;
20857;SDS011;10589;53.636;10.012;2024-03-08T14:47:47;17.80;;;13.37;;
20857;SDS011;10589;53.636;10.012;2024-03-08T14:50:20;16.13;;;12.10;;
20857;SDS011;10589;53.636;10.012;2024-03-08T14:52:47;17.17;;;12.63;;
20857;SDS011;10589;53.636;10.012;2024-03-08T14:55:13;19.90;;;13.10;;
20857;SDS011;10589;53.636;10.012;2024-03-08T14:57:40;16.60;;;12.30;;
20857;SDS011;10589;53.636;10.012;2024-03-08T15:00:07;17.90;;;12.77;;
20857;SDS011;10589;53.636;10.012;2024-03-08T15:02:40;15.17;;;11.53;;
20857;SDS011;10589;53.636;10.012;2024-03-08T15:05:07;16.27;;;12.03;;
20857;SDS011;10589;53.636;10.012;2024-03-08T15:07:38;16.00;;;11.27;;
20857;SDS011;10589;53.636;10.012;2024-03-08T15:10:06;16.83;;;11.90;;
20857;SDS011;10589;53.636;10.012;2024-03-08T15:12:39;14.97;;;11.70;;
20857;SDS011;10589;53.636;10.012;2024-03-08T15:15:07;17.60;;;12.53;;
20857;SDS011;10589;53.636;10.012;2024-03-08T15:17:36;16.03;;;12.17;;
20857;SDS011;10589;53.636;10.012;2024-03-08T15:20:04;14.83;;;11.90;;
20857;SDS011;10589;53.636;10.012;2024-03-08T15:22:39;15.87;;;11.27;;
20857;SDS011;10589;53.636;10.012;2024-03-08T15:25:06;15.00;;;11.10;;
20857;SDS011;10589;53.636;10.012;2024-03-08T15:27:32;17.83;;;11.80;;
20857;SDS011;10589;53.636;10.012;2024-03-08T15:29:58;15.23;;;11.53;;
20857;SDS011;10589;53.636;10.012;2024-03-08T15:32:24;17.03;;;11.60;;
20857;SDS011;10589;53.636;10.012;2024-03-08T15:34:49;15.73;;;11.20;;
20857;SDS011;10589;53.636;10.012;2024-03-08T15:37:18;14.40;;;10.90;;
20857;SDS011;10589;53.636;10.012;2024-03-08T15:39:44;15.80;;;11.37;;
20857;SDS011;10589;53.636;10.012;2024-03-08T15:42:10;17.70;;;11.50;;
20857;SDS011;10589;53.636;10.012;2024-03-08T15:44:36;16.57;;;11.40;;
20857;SDS011;10589;53.636;10.012;2024-03-08T15:47:03;15.77;;;11.10;;
20857;SDS011;10589;53.636;10.012;2024-03-08T15:49:32;17.43;;;12.07;;
20857;SDS011;10589;53.636;10.012;2024-03-08T15:51:58;20.23;;;12.40;;
20857;SDS011;10589;53.636;10.012;2024-03-08T15:54:23;19.20;;;12.03;;
20857;SDS011;10589;53.636;10.012;2024-03-08T15:56:50;18.83;;;12.90;;
20857;SDS011;10589;53.636;10.012;2024-03-08T15:59:16;18.77;;;12.57;;
20857;SDS011;10589;53.636;10.012;2024-03-08T16:01:41;19.93;;;12.40;;
20857;SDS011;10589;53.636;10.012;2024-03-08T16:04:11;18.33;;;12.63;;
20857;SDS011;10589;53.636;10.012;2024-03-08T16:06:37;22.17;;;11.87;;
20857;SDS011;10589;53.636;10.012;2024-03-08T16:09:05;21.27;;;12.23;;
20857;SDS011;10589;53.636;10.012;2024-03-08T16:11:38;22.93;;;12.77;;
20857;SDS011;10589;53.636;10.012;2024-03-08T16:14:04;18.43;;;12.33;;
20857;SDS011;10589;53.636;10.012;2024-03-08T16:16:29;16.77;;;11.90;;
20857;SDS011;10589;53.636;10.012;2024-03-08T16:18:56;22.47;;;12.70;;
20857;SDS011;10589;53.636;10.012;2024-03-08T16:21:22;18.43;;;12.13;;
20857;SDS011;10589;53.636;10.012;2024-03-08T16:23:48;19.17;;;12.23;;
20857;SDS011;10589;53.636;10.012;2024-03-08T16:26:16;19.83;;;12.67;;
20857;SDS011;10589;53.636;10.012;2024-03-08T16:28:42;19.50;;;12.53;;
20857;SDS011;10589;53.636;10.012;2024-03-08T16:31:08;19.57;;;13.23;;
20857;SDS011;10589;53.636;10.012;2024-03-08T16:33:35;17.87;;;12.03;;
20857;SDS011;10589;53.636;10.012;2024-03-08T16:36:01;19.07;;;13.03;;
20857;SDS011;10589;53.636;10.012;2024-03-08T16:38:27;21.43;;;12.50;;
20857;SDS011;10589;53.636;10.012;2024-03-08T16:40:53;16.90;;;11.87;;
20857;SDS011;10589;53.636;10.012;2024-03-08T16:43:24;21.07;;;12.67;;
20857;SDS011;10589;53.636;10.012;2024-03-08T16:45:49;21.87;;;12.73;;
20857;SDS011;10589;53.636;10.012;2024-03-08T16:48:19;23.50;;;14.47;;
20857;SDS011;10589;53.636;10.012;2024-03-08T16:50:47;17.87;;;13.07;;
20857;SDS011;10589;53.636;10.012;2024-03-08T16:53:13;21.20;;;12.97;;
20857;SDS011;10589;53.636;10.012;2024-03-08T16:55:39;22.03;;;13.97;;
20857;SDS011;10589;53.636;10.012;2024-03-08T16:58:05;19.97;;;13.43;;
20857;SDS011;10589;53.636;10.012;2024-03-08T17:00:33;19.37;;;13.37;;
20857;SDS011;10589;53.636;10.012;2024-03-08T17:02:59;21.97;;;13.13;;
20857;SDS011;10589;53.636;10.012;2024-03-08T17:05:26;19.73;;;13.57;;
20857;SDS011;10589;53.636;10.012;2024-03-08T17:07:54;18.87;;;13.40;;
20857;SDS011;10589;53.636;10.012;2024-03-08T17:10:26;21.30;;;13.80;;
20857;SDS011;10589;53.636;10.012;2024-03-08T17:12:53;23.37;;;14.43;;
20857;SDS011;10589;53.636;10.012;2024-03-08T17:15:26;22.47;;;14.10;;
20857;SDS011;10589;53.636;10.012;2024-03-08T17:17:53;23.80;;;14.13;;
20857;SDS011;10589;53.636;10.012;2024-03-08T17:20:21;21.63;;;13.93;;
20857;SDS011;10589;53.636;10.012;2024-03-08T17:22:51;19.87;;;12.47;;
20857;SDS011;10589;53.636;10.012;2024-03-08T17:25:18;22.60;;;13.90;;
20857;SDS011;10589;53.636;10.012;2024-03-08T17:27:50;23.30;;;13.33;;
20857;SDS011;10589;53.636;10.012;2024-03-08T17:30:21;19.27;;;13.03;;
20857;SDS011;10589;53.636;10.012;2024-03-08T17:32:51;19.40;;;12.93;;
20857;SDS011;10589;53.636;10.012;2024-03-08T17:35:22;22.47;;;13.50;;
20857;SDS011;10589;53.636;10.012;2024-03-08T17:37:49;19.60;;;13.00;;
20857;SDS011;10589;53.636;10.012;2024-03-08T17:40:19;19.47;;;13.23;;
20857;SDS011;10589;53.636;10.012;2024-03-08T17:42:49;21.87;;;14.00;;
20857;SDS011;10589;53.636;10.012;2024-03-08T17:45:19;21.93;;;12.77;;
20857;SDS011;10589;53.636;10.012;2024-03-08T17:47:52;19.93;;;12.60;;
20857;SDS011;10589;53.636;10.012;2024-03-08T17:50:18;20.17;;;13.30;;
20857;SDS011;10589;53.636;10.012;2024-03-08T17:52:45;19.93;;;13.20;;
20857;SDS011;10589;53.636;10.012;2024-03-08T17:55:12;25.03;;;15.63;;
20857;SDS011;10589;53.636;10.012;2024-03-08T17:57:45;28.73;;;17.70;;
20857;SDS011;10589;53.636;10.012;2024-03-08T18:00:13;31.77;;;20.13;;
20857;SDS011;10589;53.636;10.012;2024-03-08T18:02:43;28.43;;;18.13;;
20857;SDS011;10589;53.636;10.012;2024-03-08T18:05:18;30.63;;;18.87;;
20857;SDS011;10589;53.636;10.012;2024-03-08T18:07:47;29.50;;;19.53;;
20857;SDS011;10589;53.636;10.012;2024-03-08T18:10:12;38.33;;;20.30;;
20857;SDS011;10589;53.636;10.012;2024-03-08T18:12:44;36.30;;;20.30;;
20857;SDS011;10589;53.636;10.012;2024-03-08T18:15:12;35.10;;;20.77;;
20857;SDS011;10589;53.636;10.012;2024-03-08T18:17:38;30.83;;;20.13;;
20857;SDS011;10589;53.636;10.012;2024-03-08T18:20:05;35.17;;;21.67;;
20857;SDS011;10589;53.636;10.012;2024-03-08T18:22:33;34.37;;;22.80;;
20857;SDS011;10589;53.636;10.012;2024-03-08T18:24:58;34.60;;;22.47;;
20857;SDS011;10589;53.636;10.012;2024-03-08T18:27:24;32.87;;;21.83;;
20857;SDS011;10589;53.636;10.012;2024-03-08T18:29:50;35.53;;;21.83;;
20857;SDS011;10589;53.636;10.012;2024-03-08T18:32:16;38.47;;;22.33;;
20857;SDS011;10589;53.636;10.012;2024-03-08T18:34:46;34.43;;;22.60;;
20857;SDS011;10589;53.636;10.012;2024-03-08T18:37:12;33.13;;;21.00;;
20857;SDS011;10589;53.636;10.012;2024-03-08T18:39:38;36.87;;;22.47;;
20857;SDS011;10589;53.636;10.012;2024-03-08T18:42:04;35.03;;;21.80;;
20857;SDS011;10589;53.636;10.012;2024-03-08T18:44:30;42.03;;;25.17;;
20857;SDS011;10589;53.636;10.012;2024-03-08T18:46:55;35.53;;;20.80;;
20857;SDS011;10589;53.636;10.012;2024-03-08T18:49:22;34.93;;;23.40;;
20857;SDS011;10589;53.636;10.012;2024-03-08T18:51:47;35.80;;;22.63;;
20857;SDS011;10589;53.636;10.012;2024-03-08T18:54:17;49.77;;;30.53;;
20857;SDS011;10589;53.636;10.012;2024-03-08T18:56:42;47.57;;;28.43;;
20857;SDS011;10589;53.636;10.012;2024-03-08T18:59:08;36.23;;;22.70;;
20857;SDS011;10589;53.636;10.012;2024-03-08T19:01:34;38.67;;;22.30;;